Time;durP1;ratioP1;P1;durP2;ratioP2;P2;SDS_P1;SDS_P2;PMS_P1;PMS_P2;Temp;Humidity;BMP_temperature;BMP_pressure;BME280_temperature;BME280_humidity;BME280_pressure;Samples;Min_cycle;Max_cycle;Signal;HPM_P1;HPM_P2
2022/01/21 00:01:19;;;;;;;11.43;2.93;;;-1.40;84.50;;;;;;5035296;28;20184;-87
2022/01/21 00:03:45;;;;;;;12.47;3.07;;;-1.40;84.60;;;;;;5035824;28;20200;-87
2022/01/21 00:06:11;;;;;;;9.17;2.37;;;-1.40;84.60;;;;;;5037155;28;20259;-87
2022/01/21 00:08:40;;;;;;;19.13;3.10;;;-1.40;84.80;;;;;;5036941;28;20211;-87
2022/01/21 00:11:06;;;;;;;10.33;2.47;;;-1.40;84.90;;;;;;5037041;28;20203;-87
2022/01/21 00:13:35;;;;;;;6.20;2.40;;;-1.40;84.80;;;;;;5035830;28;20222;-87
2022/01/21 00:16:06;;;;;;;9.30;2.50;;;-1.40;84.70;;;;;;5035629;28;20180;-87
2022/01/21 00:18:34;;;;;;;12.17;3.43;;;-1.40;84.70;;;;;;5035658;28;20252;-87
2022/01/21 00:31:56;;;;;;;8.90;2.27;;;-1.20;83.30;;;;;;5036817;28;20252;-87
2022/01/21 00:34:22;;;;;;;5.60;2.80;;;-1.10;83.30;;;;;;5036554;28;20202;-87
2022/01/21 00:36:48;;;;;;;8.30;2.63;;;-1.00;83.30;;;;;;5035283;28;20183;-87
2022/01/21 00:39:13;;;;;;;11.80;2.43;;;-1.00;83.70;;;;;;5035162;28;20208;-86
2022/01/21 00:41:55;;;;;;;7.57;2.20;;;-0.90;83.90;;;;;;5035228;28;20185;-87
2022/01/21 00:44:20;;;;;;;10.23;2.20;;;-0.90;84.10;;;;;;5035045;28;20200;-86
2022/01/21 00:46:46;;;;;;;8.63;2.60;;;-0.90;84.00;;;;;;5036330;28;20172;-87
2022/01/21 00:49:14;;;;;;;12.07;2.43;;;-1.00;83.90;;;;;;5035118;28;20204;-87
2022/01/21 00:51:39;;;;;;;14.57;6.20;;;-1.00;84.00;;;;;;5035051;28;20214;-86
2022/01/21 00:54:05;;;;;;;15.57;2.97;;;-1.00;84.60;;;;;;5035013;28;20181;-86
2022/01/21 00:56:31;;;;;;;15.57;2.83;;;-0.90;85.00;;;;;;5036212;28;20174;-86
2022/01/21 00:58:56;;;;;;;10.83;3.00;;;-0.90;84.70;;;;;;5035894;28;20231;-87
2022/01/21 01:01:22;;;;;;;12.93;2.17;;;-0.80;84.20;;;;;;5034816;28;20207;-87
2022/01/21 01:03:47;;;;;;;8.63;2.37;;;-0.80;84.00;;;;;;5034730;28;20243;-87
2022/01/21 01:06:13;;;;;;;17.57;3.33;;;-0.70;83.60;;;;;;5034992;28;20216;-87
2022/01/21 01:08:39;;;;;;;20.50;3.00;;;-0.60;83.30;;;;;;5035961;28;20204;-87
2022/01/21 01:21:48;;;;;;;17.80;3.40;;;-0.60;82.60;;;;;;5036103;28;20190;-87
2022/01/21 01:29:43;;;;;;;10.13;2.83;;;-0.80;83.60;;;;;;5035879;28;20207;-86
2022/01/21 01:32:09;;;;;;;14.20;2.63;;;-0.70;84.00;;;;;;5035640;28;20176;-87
2022/01/21 01:34:34;;;;;;;16.17;3.17;;;-0.80;83.80;;;;;;5035449;28;20180;-87
2022/01/21 01:37:06;;;;;;;7.47;2.73;;;-0.80;84.20;;;;;;5034211;28;20632;-87
2022/01/21 01:39:41;;;;;;;16.33;2.53;;;-0.80;84.20;;;;;;5034168;28;20677;-86
2022/01/21 01:50:01;;;;;;;19.77;3.77;;;-0.70;84.70;;;;;;5035463;28;20213;-86
2022/01/21 01:52:26;;;;;;;19.00;5.27;;;-0.70;84.90;;;;;;5033905;28;20180;-86
2022/01/21 01:54:55;;;;;;;11.20;3.50;;;-0.60;84.80;;;;;;5033922;28;20180;-87
2022/01/21 01:57:21;;;;;;;11.70;2.63;;;-0.60;84.90;;;;;;5033845;28;20187;-87
2022/01/21 01:59:47;;;;;;;14.23;2.87;;;-0.60;85.00;;;;;;5033722;28;20214;-87
2022/01/21 02:02:15;;;;;;;14.43;4.03;;;-0.60;85.10;;;;;;5033612;28;20187;-87
2022/01/21 02:04:42;;;;;;;15.67;3.03;;;-0.70;85.00;;;;;;5035335;28;20200;-87
2022/01/21 02:07:09;;;;;;;15.63;2.93;;;-0.80;85.40;;;;;;5033589;28;20632;-87
2022/01/21 02:09:36;;;;;;;18.33;3.00;;;-0.80;85.40;;;;;;5033554;28;20314;-87
2022/01/21 02:12:03;;;;;;;13.80;3.57;;;-0.80;85.60;;;;;;5033563;28;20172;-87
2022/01/21 02:14:33;;;;;;;16.80;2.97;;;-0.70;86.00;;;;;;5034939;28;20184;-87
2022/01/21 02:22:11;;;;;;;18.00;3.07;;;-0.60;86.10;;;;;;5034659;28;20166;-87
2022/01/21 02:24:50;;;;;;;16.43;3.13;;;-0.60;86.00;;;;;;5032418;28;20197;-87
2022/01/21 02:27:16;;;;;;;13.63;2.73;;;-0.60;85.70;;;;;;5033269;28;20180;-87
2022/01/21 02:29:51;;;;;;;16.77;2.70;;;-0.60;86.00;;;;;;5033085;28;20196;-87
2022/01/21 02:32:18;;;;;;;15.40;2.37;;;-0.50;86.30;;;;;;5033137;28;20195;-87
2022/01/21 02:34:46;;;;;;;17.00;2.77;;;-0.60;86.40;;;;;;5033162;28;20187;-87
2022/01/21 02:37:14;;;;;;;25.13;3.57;;;-0.50;86.30;;;;;;5033404;28;20216;-87
2022/01/21 02:39:40;;;;;;;20.33;3.70;;;-0.30;86.50;;;;;;5032912;28;20211;-87
2022/01/21 02:42:06;;;;;;;13.40;3.37;;;-0.30;86.20;;;;;;5034165;28;20185;-87
2022/01/21 02:44:32;;;;;;;21.77;3.77;;;-0.30;86.00;;;;;;5033369;28;20211;-87
2022/01/21 02:47:01;;;;;;;14.13;3.23;;;-0.30;85.80;;;;;;5032819;28;20552;-87
2022/01/21 02:49:27;;;;;;;19.80;3.40;;;-0.20;85.80;;;;;;5032828;28;20200;-87
2022/01/21 02:51:55;;;;;;;16.00;3.10;;;-0.10;86.10;;;;;;5032743;28;20184;-87
2022/01/21 02:54:21;;;;;;;19.00;3.33;;;0.00;86.10;;;;;;5033970;28;20204;-87
2022/01/21 02:56:47;;;;;;;22.80;3.30;;;0.00;86.20;;;;;;5032661;28;20181;-87
2022/01/21 02:59:13;;;;;;;18.33;3.93;;;0.00;86.30;;;;;;5032456;28;20225;-87
2022/01/21 03:01:41;;;;;;;19.27;2.97;;;0.00;86.00;;;;;;5033935;28;20626;-87
2022/01/21 03:04:10;;;;;;;18.60;3.80;;;0.00;86.30;;;;;;5032564;28;20212;-87
2022/01/21 03:06:37;;;;;;;23.47;4.23;;;0.10;86.20;;;;;;5032521;28;20185;-87
2022/01/21 03:09:05;;;;;;;14.80;3.23;;;0.10;86.20;;;;;;5033968;28;20223;-87
2022/01/21 03:11:31;;;;;;;23.00;3.93;;;0.10;86.30;;;;;;5032427;28;20173;-87
2022/01/21 03:13:57;;;;;;;19.47;3.80;;;0.20;86.30;;;;;;5032458;28;20181;-87
2022/01/21 03:16:24;;;;;;;20.47;4.70;;;0.10;86.10;;;;;;5033617;28;20230;-87
2022/01/21 03:18:50;;;;;;;22.80;4.50;;;0.10;85.90;;;;;;5032257;28;20196;-87
2022/01/21 03:21:16;;;;;;;19.40;3.83;;;0.30;85.90;;;;;;5033636;28;20625;-87
2022/01/21 03:23:50;;;;;;;21.63;3.37;;;0.40;85.80;;;;;;5033743;28;20209;-87
2022/01/21 03:26:18;;;;;;;19.07;3.13;;;0.40;85.70;;;;;;5032124;28;20326;-87
2022/01/21 03:28:46;;;;;;;20.57;3.70;;;0.50;86.00;;;;;;5032549;28;20198;-87
2022/01/21 03:31:12;;;;;;;20.27;3.13;;;0.60;85.80;;;;;;5033360;28;20187;-87
2022/01/21 03:33:38;;;;;;;17.20;3.70;;;0.60;85.70;;;;;;5032139;28;20273;-87
2022/01/21 03:36:05;;;;;;;17.33;3.40;;;0.70;85.90;;;;;;5032076;28;20686;-87
2022/01/21 03:38:30;;;;;;;19.40;3.07;;;0.50;85.90;;;;;;5032087;28;20212;-87
2022/01/21 03:40:56;;;;;;;24.20;7.80;;;0.70;86.10;;;;;;5033351;28;20639;-88
2022/01/21 03:43:24;;;;;;;20.63;3.77;;;0.60;85.90;;;;;;5031917;28;20269;-88
2022/01/21 03:45:51;;;;;;;26.27;3.57;;;0.70;86.00;;;;;;5033480;28;20246;-88
2022/01/21 03:48:17;;;;;;;17.77;3.13;;;0.80;86.30;;;;;;5033109;28;20197;-87
2022/01/21 03:50:44;;;;;;;13.37;3.23;;;0.90;86.00;;;;;;5032274;28;20181;-87
2022/01/21 03:53:10;;;;;;;17.20;3.73;;;0.90;86.00;;;;;;5033140;28;20173;-88
2022/01/21 03:55:36;;;;;;;29.67;8.10;;;1.00;86.20;;;;;;5031877;28;20671;-88
2022/01/21 03:58:04;;;;;;;24.33;4.17;;;1.00;86.00;;;;;;5032153;28;20219;-88
2022/01/21 04:00:45;;;;;;;24.67;3.43;;;1.10;85.80;;;;;;5031893;28;20689;-88
2022/01/21 04:03:11;;;;;;;24.57;3.73;;;1.10;85.70;;;;;;5031913;28;20177;-88
2022/01/21 04:05:37;;;;;;;20.20;2.77;;;1.10;86.00;;;;;;5031774;28;20556;-88
2022/01/21 04:08:05;;;;;;;15.47;3.53;;;1.20;86.20;;;;;;5033033;28;20196;-88
2022/01/21 04:10:31;;;;;;;23.90;4.40;;;1.10;86.20;;;;;;5031905;28;20269;-88
2022/01/21 04:12:57;;;;;;;19.77;3.37;;;1.10;86.10;;;;;;5031750;28;20211;-88
2022/01/21 04:15:23;;;;;;;26.13;4.00;;;1.20;86.40;;;;;;5031817;28;20701;-88
2022/01/21 04:17:49;;;;;;;17.10;4.33;;;1.20;86.20;;;;;;5031673;28;20177;-88
2022/01/21 04:20:16;;;;;;;20.40;3.73;;;1.30;86.40;;;;;;5033004;28;20178;-88
2022/01/21 04:22:43;;;;;;;22.13;3.10;;;1.30;86.10;;;;;;5032085;28;20209;-89
2022/01/21 04:25:09;;;;;;;24.23;3.07;;;1.20;86.40;;;;;;5031550;28;20286;-88
2022/01/21 04:27:36;;;;;;;13.63;3.40;;;1.30;86.40;;;;;;5032850;28;20659;-88
2022/01/21 04:30:06;;;;;;;18.70;4.00;;;1.30;86.40;;;;;;5031961;28;20179;-88
2022/01/21 04:32:32;;;;;;;21.23;3.43;;;1.40;86.40;;;;;;5032713;28;20202;-88
2022/01/21 04:34:57;;;;;;;21.77;3.50;;;1.50;86.30;;;;;;5031596;28;20235;-88
2022/01/21 04:37:23;;;;;;;17.23;3.50;;;1.60;86.00;;;;;;5032033;28;20723;-88
2022/01/21 04:39:59;;;;;;;19.00;3.63;;;1.70;85.60;;;;;;5032765;28;20190;-88
2022/01/21 04:47:52;;;;;;;24.27;4.37;;;1.90;84.90;;;;;;5035285;28;20218;-89
2022/01/21 04:50:18;;;;;;;22.37;4.20;;;1.90;84.80;;;;;;5037037;28;20618;-89
2022/01/21 04:52:45;;;;;;;15.83;2.87;;;2.00;84.70;;;;;;5036409;28;20222;-89
2022/01/21 04:55:11;;;;;;;22.37;3.17;;;1.90;84.30;;;;;;5036248;28;20172;-89
2022/01/21 04:57:37;;;;;;;34.20;4.90;;;2.00;84.30;;;;;;5034959;28;20666;-89
2022/01/21 05:00:06;;;;;;;21.23;4.50;;;2.00;84.30;;;;;;5036575;28;20184;-89
2022/01/21 05:02:33;;;;;;;21.13;3.60;;;2.10;84.10;;;;;;5036173;28;20178;-89
2022/01/21 05:04:59;;;;;;;23.67;4.50;;;2.10;83.70;;;;;;5036097;28;20204;-89
2022/01/21 05:07:26;;;;;;;16.93;2.93;;;2.10;84.00;;;;;;5036143;28;20195;-89
2022/01/21 05:09:52;;;;;;;23.30;4.03;;;2.10;83.70;;;;;;5035985;28;20194;-89
2022/01/21 05:12:20;;;;;;;13.27;2.97;;;2.10;83.50;;;;;;5036114;28;20554;-89
2022/01/21 05:17:25;;;;;;;13.53;2.77;;;2.00;83.60;;;;;;5036263;28;20185;-89
2022/01/21 05:19:53;;;;;;;22.40;3.53;;;2.10;83.40;;;;;;5035803;28;20218;-90
2022/01/21 05:22:18;;;;;;;18.50;3.77;;;2.10;83.10;;;;;;5035918;28;20180;-89
2022/01/21 05:24:44;;;;;;;17.70;3.60;;;2.00;83.20;;;;;;5035686;28;20702;-88
2022/01/21 05:27:12;;;;;;;20.77;3.00;;;2.00;83.40;;;;;;5034945;28;20264;-88
2022/01/21 05:29:38;;;;;;;18.73;3.67;;;2.00;83.70;;;;;;5035572;28;20182;-89
2022/01/21 05:32:06;;;;;;;26.23;4.03;;;2.00;83.40;;;;;;5035696;28;20167;-89
2022/01/21 05:34:32;;;;;;;13.60;2.87;;;1.90;83.50;;;;;;5035804;28;20177;-88
2022/01/21 05:36:58;;;;;;;17.70;3.27;;;1.90;83.50;;;;;;5034698;28;20178;-89
2022/01/21 05:39:24;;;;;;;14.60;2.73;;;1.90;83.60;;;;;;5034231;28;20207;-89
2022/01/21 05:41:52;;;;;;;15.80;3.00;;;1.80;83.40;;;;;;5035470;28;20180;-89
2022/01/21 05:46:57;;;;;;;20.07;3.37;;;1.80;83.40;;;;;;5035882;28;20156;-89
2022/01/21 05:49:25;;;;;;;18.93;3.30;;;1.80;83.20;;;;;;5035242;28;20199;-89
2022/01/21 05:52:03;;;;;;;17.63;3.23;;;1.70;83.10;;;;;;5035290;28;20214;-88
2022/01/21 05:54:30;;;;;;;23.07;3.93;;;1.70;83.20;;;;;;5035074;28;20230;-89
2022/01/21 05:56:56;;;;;;;23.60;4.43;;;1.60;83.20;;;;;;5033846;28;20229;-89
2022/01/21 05:59:23;;;;;;;21.07;3.57;;;1.60;83.00;;;;;;5033599;28;20276;-89
2022/01/21 06:01:49;;;;;;;27.87;4.60;;;1.70;82.70;;;;;;5035028;28;20179;-89
2022/01/21 06:04:15;;;;;;;18.70;2.90;;;1.60;82.20;;;;;;5034938;28;20661;-89
2022/01/21 06:06:41;;;;;;;21.43;3.70;;;1.60;81.50;;;;;;5035027;28;20171;-89
2022/01/21 06:09:07;;;;;;;16.60;3.67;;;1.70;80.50;;;;;;5034888;28;20209;-88
2022/01/21 06:11:33;;;;;;;10.87;2.70;;;1.60;80.40;;;;;;5033968;28;20227;-89
2022/01/21 06:14:01;;;;;;;17.10;2.43;;;1.50;80.60;;;;;;5033652;28;20181;-88
2022/01/21 06:16:26;;;;;;;11.60;2.43;;;1.50;80.50;;;;;;5033910;28;20184;-88
2022/01/21 06:18:52;;;;;;;11.10;2.57;;;1.50;80.10;;;;;;5034718;28;20214;-89
2022/01/21 06:21:18;;;;;;;16.00;3.83;;;1.50;80.10;;;;;;5034662;28;20224;-88
2022/01/21 06:23:43;;;;;;;19.17;3.60;;;1.50;80.20;;;;;;5033316;28;20228;-88
2022/01/21 06:26:09;;;;;;;22.27;3.20;;;1.50;79.90;;;;;;5033405;28;20176;-88
2022/01/21 06:28:35;;;;;;;14.20;2.73;;;1.60;79.70;;;;;;5033328;28;20204;-88
2022/01/21 06:31:01;;;;;;;20.80;3.20;;;1.50;79.50;;;;;;5033225;28;20182;-89
2022/01/21 06:33:27;;;;;;;18.43;3.63;;;1.30;80.00;;;;;;5033276;28;20719;-88
2022/01/21 06:35:53;;;;;;;22.07;3.10;;;1.10;80.70;;;;;;5033271;28;20216;-88
2022/01/21 06:38:20;;;;;;;10.10;2.90;;;1.00;81.10;;;;;;5033084;28;20329;-88
2022/01/21 06:40:47;;;;;;;14.87;3.03;;;1.00;81.30;;;;;;5033150;28;20355;-88
2022/01/21 06:43:13;;;;;;;12.57;2.93;;;1.00;81.20;;;;;;5033005;28;20660;-88
2022/01/21 06:45:39;;;;;;;10.47;2.33;;;1.00;80.90;;;;;;5032955;28;20705;-88
2022/01/21 06:48:05;;;;;;;17.23;3.20;;;1.20;80.00;;;;;;5032818;28;20200;-88
2022/01/21 06:50:33;;;;;;;9.57;2.67;;;1.20;79.30;;;;;;5034116;28;20640;-88
2022/01/21 06:52:59;;;;;;;14.30;2.77;;;1.30;78.60;;;;;;5034046;28;20608;-88
2022/01/21 06:55:25;;;;;;;19.87;2.83;;;1.20;78.80;;;;;;5033020;28;20220;-88
2022/01/21 06:57:50;;;;;;;10.50;2.90;;;1.10;78.70;;;;;;5033955;28;20283;-88
2022/01/21 07:00:19;;;;;;;8.40;2.43;;;1.20;78.70;;;;;;5034348;28;20177;-88
2022/01/21 07:02:49;;;;;;;9.37;2.30;;;1.20;78.50;;;;;;5033950;28;20171;-88
2022/01/21 07:05:16;;;;;;;12.20;2.70;;;1.20;78.40;;;;;;5032824;28;20669;-87
2022/01/21 07:07:42;;;;;;;11.97;2.83;;;1.20;77.90;;;;;;5032807;28;20175;-88
2022/01/21 07:10:11;;;;;;;11.93;2.33;;;1.10;78.00;;;;;;5033500;28;20579;-87
2022/01/21 07:12:37;;;;;;;10.70;2.53;;;1.00;78.40;;;;;;5033331;28;20267;-88
2022/01/21 07:15:04;;;;;;;17.73;2.57;;;0.90;78.70;;;;;;5032412;28;20216;-88
2022/01/21 07:17:29;;;;;;;15.77;2.90;;;0.90;78.70;;;;;;5032274;28;20229;-87
2022/01/21 07:19:55;;;;;;;11.80;2.50;;;0.90;78.60;;;;;;5033528;28;20263;-88
2022/01/21 07:22:21;;;;;;;9.20;2.67;;;0.90;78.60;;;;;;5033553;28;20181;-88
2022/01/21 07:24:46;;;;;;;10.20;2.60;;;1.00;77.90;;;;;;5032186;28;20352;-89
2022/01/21 07:27:12;;;;;;;10.23;2.73;;;0.90;77.60;;;;;;5033619;28;20170;-88
2022/01/21 07:29:38;;;;;;;10.23;2.50;;;0.80;78.20;;;;;;5032142;28;20245;-88
2022/01/21 07:32:04;;;;;;;17.93;2.43;;;0.60;78.50;;;;;;5033467;28;20247;-88
2022/01/21 07:34:29;;;;;;;14.23;2.53;;;0.50;79.00;;;;;;5032199;28;20682;-88
2022/01/21 07:36:56;;;;;;;13.43;2.60;;;0.40;79.30;;;;;;5033423;28;20173;-88
2022/01/21 07:39:22;;;;;;;10.43;2.50;;;0.40;79.40;;;;;;5032058;28;20198;-88
2022/01/21 07:41:48;;;;;;;18.70;3.50;;;0.40;79.00;;;;;;5032601;28;20269;-88
2022/01/21 07:44:13;;;;;;;13.40;3.23;;;0.50;78.60;;;;;;5031976;28;20755;-88
2022/01/21 07:46:43;;;;;;;14.80;4.03;;;0.50;78.30;;;;;;5033233;28;20171;-88
2022/01/21 07:49:10;;;;;;;15.37;4.67;;;0.60;78.30;;;;;;5033408;28;20277;-88
2022/01/21 07:51:36;;;;;;;7.03;2.70;;;0.60;77.80;;;;;;5032058;28;20280;-88
2022/01/21 07:54:02;;;;;;;11.00;3.13;;;0.60;77.90;;;;;;5032292;28;20175;-87
2022/01/21 07:56:28;;;;;;;21.10;3.97;;;0.60;77.80;;;;;;5031816;28;20179;-88
2022/01/21 07:58:55;;;;;;;13.47;3.53;;;0.70;77.40;;;;;;5033171;28;20314;-88
2022/01/21 08:01:21;;;;;;;8.07;2.80;;;0.70;77.00;;;;;;5031928;28;20179;-88
2022/01/21 08:03:46;;;;;;;8.87;2.70;;;0.80;76.40;;;;;;5031699;28;20223;-88
2022/01/21 08:06:13;;;;;;;13.30;2.50;;;0.70;76.60;;;;;;5033466;28;20172;-88
2022/01/21 08:08:38;;;;;;;9.63;2.50;;;0.80;76.60;;;;;;5033013;28;20187;-88
2022/01/21 08:11:04;;;;;;;9.77;2.37;;;0.80;75.70;;;;;;5031850;28;20677;-87
2022/01/21 08:13:29;;;;;;;11.63;2.57;;;0.80;75.80;;;;;;5031748;28;20177;-88
2022/01/21 08:15:56;;;;;;;9.73;2.87;;;0.70;75.80;;;;;;5032565;28;20269;-88
2022/01/21 08:18:22;;;;;;;7.30;2.30;;;0.80;75.20;;;;;;5032952;28;20203;-87
2022/01/21 08:20:48;;;;;;;8.33;2.40;;;0.70;75.20;;;;;;5032594;28;20176;-87
2022/01/21 08:23:13;;;;;;;6.13;1.97;;;0.70;75.20;;;;;;5035905;28;20643;-87
2022/01/21 08:25:40;;;;;;;6.70;1.97;;;0.70;75.20;;;;;;5035500;28;20239;-87
2022/01/21 08:28:06;;;;;;;7.90;2.30;;;0.70;75.40;;;;;;5035486;28;20201;-87
2022/01/21 08:30:32;;;;;;;6.20;2.13;;;0.60;75.30;;;;;;5035477;28;20186;-87
2022/01/21 08:32:58;;;;;;;7.03;2.30;;;0.60;75.60;;;;;;5036656;28;20176;-87
2022/01/21 08:35:23;;;;;;;11.87;2.23;;;0.60;75.80;;;;;;5035444;28;20553;-87
2022/01/21 08:37:52;;;;;;;10.57;2.33;;;0.60;75.90;;;;;;5035317;28;21862;-87
2022/01/21 08:40:19;;;;;;;8.20;2.67;;;0.60;76.20;;;;;;5035205;28;20186;-87
2022/01/21 08:42:44;;;;;;;6.43;2.20;;;0.60;76.10;;;;;;5035227;28;20174;-87
2022/01/21 08:45:11;;;;;;;10.03;1.70;;;0.60;76.30;;;;;;5035135;28;20208;-87
2022/01/21 08:47:38;;;;;;;4.13;2.13;;;0.60;76.30;;;;;;5036404;28;20200;-87
2022/01/21 08:50:07;;;;;;;16.07;2.13;;;0.60;76.50;;;;;;5035137;28;20225;-88
2022/01/21 08:52:37;;;;;;;4.73;1.70;;;0.60;76.70;;;;;;5035104;28;20176;-87
2022/01/21 08:55:05;;;;;;;9.13;2.23;;;0.60;76.20;;;;;;5035089;28;20544;-87
2022/01/21 08:57:32;;;;;;;8.93;2.17;;;0.70;75.80;;;;;;5036064;28;20666;-87
2022/01/21 08:59:59;;;;;;;12.63;2.40;;;0.70;76.00;;;;;;5036051;28;20185;-87
2022/01/21 09:02:24;;;;;;;5.53;2.37;;;0.80;75.70;;;;;;5034887;28;20178;-87
2022/01/21 09:04:50;;;;;;;17.37;2.70;;;0.90;75.80;;;;;;5035996;28;20200;-87
2022/01/21 09:07:16;;;;;;;9.50;2.43;;;1.00;76.00;;;;;;5034862;28;20173;-87
2022/01/21 09:09:42;;;;;;;9.60;2.60;;;1.20;76.70;;;;;;5034671;28;20195;-87
2022/01/21 09:12:07;;;;;;;12.10;2.60;;;1.20;76.70;;;;;;5034822;28;20572;-87
2022/01/21 09:14:34;;;;;;;8.57;2.63;;;1.30;77.20;;;;;;5034688;28;20230;-88
2022/01/21 09:17:00;;;;;;;11.03;2.40;;;1.40;77.60;;;;;;5035877;28;20172;-87
2022/01/21 09:19:26;;;;;;;9.23;2.93;;;1.50;78.00;;;;;;5035800;28;20200;-88
2022/01/21 09:21:54;;;;;;;11.40;2.37;;;1.50;78.20;;;;;;5035797;28;20171;-87
2022/01/21 09:24:20;;;;;;;8.10;2.10;;;1.70;78.10;;;;;;5034698;28;20204;-88
2022/01/21 09:26:46;;;;;;;8.10;2.30;;;1.80;78.20;;;;;;5035754;28;20727;-88
2022/01/21 09:29:12;;;;;;;13.70;3.10;;;1.90;77.70;;;;;;5034407;28;20221;-88
2022/01/21 09:31:38;;;;;;;8.80;2.30;;;1.90;78.00;;;;;;5035162;28;20675;-88
2022/01/21 09:34:05;;;;;;;10.30;2.77;;;2.00;77.50;;;;;;5033765;28;20179;-88
2022/01/21 09:36:32;;;;;;;13.60;3.17;;;1.90;76.60;;;;;;5035551;28;20207;-88
2022/01/21 09:38:58;;;;;;;7.60;2.43;;;1.90;76.60;;;;;;5035436;28;20198;-88
2022/01/21 09:41:24;;;;;;;17.93;2.83;;;1.80;77.60;;;;;;5034310;28;20549;-88
2022/01/21 09:43:53;;;;;;;13.37;2.73;;;1.80;78.10;;;;;;5035369;28;20550;-88
2022/01/21 09:46:31;;;;;;;11.30;2.83;;;1.90;78.10;;;;;;5034784;28;20204;-88
2022/01/21 09:49:07;;;;;;;8.67;2.20;;;2.00;78.30;;;;;;5034418;28;20735;-88
2022/01/21 09:51:37;;;;;;;8.67;2.97;;;2.10;77.70;;;;;;5034924;28;20245;-88
2022/01/21 09:54:07;;;;;;;7.77;2.77;;;2.30;77.50;;;;;;5033944;28;20180;-88
2022/01/21 09:56:37;;;;;;;9.47;2.50;;;2.30;78.30;;;;;;5035528;28;20182;-88
2022/01/21 09:59:03;;;;;;;8.27;2.30;;;2.20;78.50;;;;;;5040902;23;20239;-89
2022/01/21 10:01:29;;;;;;;8.03;3.07;;;2.30;78.30;;;;;;5050548;28;20563;-89
2022/01/21 10:03:54;;;;;;;10.60;2.87;;;2.40;78.00;;;;;;5035038;28;20314;-89
2022/01/21 10:06:25;;;;;;;12.60;3.03;;;2.50;78.30;;;;;;5050456;28;20180;-89
2022/01/21 10:08:53;;;;;;;10.17;2.60;;;2.50;78.60;;;;;;5034867;28;20183;-89
2022/01/21 10:11:20;;;;;;;16.00;2.93;;;2.40;78.80;;;;;;5035016;28;20197;-89
2022/01/21 10:13:48;;;;;;;10.20;2.93;;;2.30;79.20;;;;;;5033937;28;20193;-89
2022/01/21 10:16:13;;;;;;;14.60;3.00;;;2.30;79.60;;;;;;5033733;28;20553;-89
2022/01/21 10:19:01;;;;;;;10.90;2.57;;;2.30;79.60;;;;;;5033542;28;20200;-89
2022/01/21 10:21:36;;;;;;;37.47;3.97;;;2.50;79.90;;;;;;5023017;28;20216;-89
2022/01/21 10:24:14;;;;;;;13.53;2.90;;;2.70;78.80;;;;;;5033699;28;20206;-89
2022/01/21 10:26:52;;;;;;;15.30;3.00;;;2.80;80.20;;;;;;5033726;28;20208;-88
2022/01/21 10:29:18;;;;;;;11.53;3.20;;;2.90;80.60;;;;;;5033312;28;20244;-89
2022/01/21 10:31:59;;;;;;;14.33;3.33;;;3.10;80.40;;;;;;5033307;28;20259;-88
2022/01/21 10:34:27;;;;;;;14.90;3.03;;;3.30;79.90;;;;;;5034453;28;20172;-90
2022/01/21 10:37:06;;;;;;;11.33;2.20;;;3.50;80.10;;;;;;5034431;28;20667;-89
2022/01/21 10:39:34;;;;;;;13.00;3.00;;;3.80;77.70;;;;;;5033489;28;20447;-91
2022/01/21 10:42:01;;;;;;;10.33;2.47;;;3.80;77.60;;;;;;5033172;28;20745;-89
2022/01/21 10:44:30;;;;;;;7.03;1.93;;;3.70;78.40;;;;;;5033339;28;20232;-89
2022/01/21 10:47:05;;;;;;;12.77;2.70;;;3.70;78.30;;;;;;5034224;28;20161;-90
2022/01/21 10:49:31;;;;;;;12.97;2.90;;;3.80;78.20;;;;;;5034138;28;20196;-89
2022/01/21 10:51:57;;;;;;;11.57;2.93;;;3.90;78.50;;;;;;5034179;28;20169;-89
2022/01/21 10:54:26;;;;;;;16.00;2.80;;;4.10;78.70;;;;;;5034113;28;20175;-90
2022/01/21 10:57:10;;;;;;;11.70;2.80;;;4.30;78.10;;;;;;5034082;28;20250;-90
2022/01/21 10:59:45;;;;;;;13.10;2.73;;;4.40;78.00;;;;;;5032657;28;20583;-89
2022/01/21 11:02:12;;;;;;;2.87;1.67;;;4.60;78.30;;;;;;5033990;28;20168;-89
2022/01/21 11:04:43;;;;;;;20.10;2.53;;;4.60;77.50;;;;;;5032632;28;20202;-90
2022/01/21 11:07:11;;;;;;;14.37;2.90;;;4.40;78.50;;;;;;5032652;28;20224;-89
2022/01/21 11:09:39;;;;;;;15.10;2.67;;;4.50;79.20;;;;;;5033862;28;20189;-90
2022/01/21 11:12:11;;;;;;;11.93;2.80;;;4.50;79.90;;;;;;5032701;28;20251;-89
2022/01/21 11:15:00;;;;;;;13.37;3.07;;;4.30;80.00;;;;;;5034112;28;20174;-88
2022/01/21 11:17:26;;;;;;;16.63;2.67;;;4.40;80.70;;;;;;5033950;28;20161;-90
2022/01/21 11:20:15;;;;;;;15.63;3.07;;;4.30;80.80;;;;;;5033791;28;20212;-90
2022/01/21 11:23:01;;;;;;;10.90;2.77;;;4.30;81.30;;;;;;5034036;28;20154;-90
2022/01/21 11:25:42;;;;;;;14.17;3.17;;;4.20;82.00;;;;;;5032607;28;20189;-89
2022/01/21 11:28:09;;;;;;;16.90;3.57;;;4.20;82.40;;;;;;5032623;28;20184;-90
2022/01/21 11:30:34;;;;;;;16.87;2.63;;;4.20;82.50;;;;;;5033548;28;20173;-89
2022/01/21 11:33:00;;;;;;;21.07;3.40;;;4.10;83.00;;;;;;5033491;28;20514;-89
2022/01/21 11:35:29;;;;;;;13.97;2.43;;;4.10;83.40;;;;;;5034035;28;20572;-90
2022/01/21 11:37:55;;;;;;;13.63;3.23;;;4.20;83.50;;;;;;5033461;28;20173;-89
2022/01/21 11:40:22;;;;;;;9.53;2.87;;;4.20;83.80;;;;;;5033400;28;20710;-89
2022/01/21 11:42:49;;;;;;;10.93;2.77;;;4.20;83.90;;;;;;5033453;28;20672;-90
2022/01/21 11:45:33;;;;;;;19.53;3.53;;;4.20;84.30;;;;;;5033297;28;20627;-90
2022/01/21 11:50:40;;;;;;;16.27;2.70;;;4.20;84.60;;;;;;5033615;28;20160;-89
2022/01/21 11:53:06;;;;;;;13.33;3.17;;;4.20;84.90;;;;;;5032084;28;20261;-89
2022/01/21 11:55:47;;;;;;;15.73;3.37;;;4.20;85.00;;;;;;5032036;28;20310;-90
2022/01/21 11:58:18;;;;;;;16.17;3.13;;;4.20;85.10;;;;;;5033603;28;20196;-91
2022/01/21 12:00:47;;;;;;;10.80;2.93;;;4.20;85.20;;;;;;5032080;28;20309;-90
2022/01/21 12:03:17;;;;;;;11.77;3.03;;;4.20;85.40;;;;;;5033226;28;20692;-90
2022/01/21 12:05:43;;;;;;;16.90;3.60;;;4.20;85.50;;;;;;5033117;28;20192;-90
2022/01/21 12:08:09;;;;;;;22.10;4.00;;;4.20;85.80;;;;;;5033075;28;20172;-90
2022/01/21 12:10:42;;;;;;;12.90;2.97;;;4.20;85.80;;;;;;5031912;28;20215;-90
2022/01/21 12:13:18;;;;;;;7.13;2.10;;;4.20;86.00;;;;;;5033136;28;20173;-90
2022/01/21 12:16:19;;;;;;;17.13;2.57;;;4.20;86.10;;;;;;5033339;28;20215;-90
2022/01/21 12:19:09;;;;;;;8.80;2.27;;;4.20;86.30;;;;;;5032741;28;20200;-90
2022/01/21 12:21:37;;;;;;;12.47;2.60;;;4.20;86.20;;;;;;5032081;28;20742;-90
2022/01/21 12:24:04;;;;;;;10.33;3.70;;;4.20;86.30;;;;;;5032029;28;20200;-90
2022/01/21 12:26:31;;;;;;;16.03;2.53;;;4.20;86.50;;;;;;5033051;28;20168;-90
2022/01/21 12:28:59;;;;;;;18.17;2.80;;;4.20;86.50;;;;;;5032881;28;20189;-90
2022/01/21 12:31:39;;;;;;;11.03;3.03;;;4.20;86.50;;;;;;5033047;28;20165;-90
2022/01/21 12:34:10;;;;;;;16.03;3.10;;;4.30;86.60;;;;;;5033038;28;20149;-90
2022/01/21 12:36:41;;;;;;;14.93;2.63;;;4.30;86.60;;;;;;5031655;28;20177;-89
2022/01/21 12:39:37;;;;;;;18.70;2.97;;;4.20;86.80;;;;;;5032958;28;20188;-90
2022/01/21 12:42:21;;;;;;;12.60;2.60;;;4.30;86.90;;;;;;5031720;28;20169;-90
2022/01/21 12:44:52;;;;;;;20.10;3.00;;;4.30;86.80;;;;;;5031532;28;20267;-90
2022/01/21 12:47:45;;;;;;;11.43;2.37;;;4.30;86.70;;;;;;5031503;28;20181;-90
2022/01/21 12:50:15;;;;;;;12.40;2.33;;;4.30;86.90;;;;;;5031551;28;20189;-90
2022/01/21 12:58:10;;;;;;;13.07;2.53;;;4.30;87.10;;;;;;5033057;28;20189;-90
2022/01/21 13:00:37;;;;;;;17.63;2.60;;;4.30;87.10;;;;;;5031522;28;20208;-90
2022/01/21 13:03:09;;;;;;;17.50;4.27;;;4.40;87.20;;;;;;5031447;28;20273;-90
2022/01/21 13:05:49;;;;;;;11.53;3.07;;;4.50;87.10;;;;;;5031412;28;20207;-90
2022/01/21 13:08:32;;;;;;;13.17;2.53;;;4.60;87.20;;;;;;5032853;28;20164;-90
2022/01/21 13:11:08;;;;;;;11.23;2.57;;;4.60;87.10;;;;;;5034881;28;20215;-90
2022/01/21 13:13:47;;;;;;;13.77;2.87;;;4.50;87.60;;;;;;5036040;28;20187;-90
2022/01/21 13:16:32;;;;;;;17.43;2.53;;;4.50;87.60;;;;;;5034793;28;20199;-90
2022/01/21 13:19:05;;;;;;;17.00;3.23;;;4.40;87.60;;;;;;5035869;28;20239;-90
2022/01/21 13:21:35;;;;;;;13.80;3.67;;;4.30;87.80;;;;;;5034749;28;20170;-91
2022/01/21 13:24:15;;;;;;;17.03;3.30;;;4.30;88.00;;;;;;5034578;28;20291;-90
2022/01/21 13:26:43;;;;;;;13.00;2.70;;;4.30;88.00;;;;;;5034572;28;20168;-88
2022/01/21 13:29:11;;;;;;;16.37;3.07;;;4.30;88.00;;;;;;5034494;28;20243;-90
2022/01/21 13:31:48;;;;;;;15.17;2.90;;;4.30;88.20;;;;;;5035297;28;20599;-90
2022/01/21 13:34:42;;;;;;;17.37;3.00;;;4.30;88.20;;;;;;5034423;28;20206;-90
2022/01/21 13:37:09;;;;;;;16.30;3.33;;;4.30;88.20;;;;;;5034171;28;20189;-89
2022/01/21 13:39:41;;;;;;;12.37;2.87;;;4.40;88.30;;;;;;5035372;28;20236;-90
2022/01/21 13:42:23;;;;;;;12.93;2.60;;;4.50;88.50;;;;;;5035524;28;20201;-88
2022/01/21 13:44:52;;;;;;;14.07;3.10;;;4.60;88.30;;;;;;5035412;28;20259;-89
2022/01/21 13:47:36;;;;;;;17.10;3.13;;;4.60;88.00;;;;;;5034715;28;20181;-89
2022/01/21 13:50:05;;;;;;;15.40;3.50;;;4.60;87.90;;;;;;5035326;28;20188;-90
2022/01/21 13:52:39;;;;;;;15.07;2.90;;;4.60;87.90;;;;;;5035249;28;20244;-90
2022/01/21 13:55:08;;;;;;;17.50;2.57;;;4.60;87.80;;;;;;5035658;28;20162;-90